Time;durP1;ratioP1;P1;durP2;ratioP2;P2;SDS_P1;SDS_P2;PMS_P1;PMS_P2;Temp;Humidity;BMP_temperature;BMP_pressure;BME280_temperature;BME280_humidity;BME280_pressure;Samples;Min_cycle;Max_cycle;Signal;HPM_P1;HPM_P2
2022/07/06 00:01:40;;;;;;;11.95;8.90;;;;;;;;;;5042132;28;20120;-70
2022/07/06 00:04:06;;;;;;;9.65;8.70;;;;;;;;;;5039713;28;20041;-71
2022/07/06 00:06:31;;;;;;;11.95;8.40;;;;;;;;;;5025124;28;20044;-71
2022/07/06 00:08:57;;;;;;;9.52;8.63;;;;;;;;;;5032070;28;20036;-70
2022/07/06 00:11:23;;;;;;;9.32;7.97;;;;;;;;;;5033863;28;20095;-70
2022/07/06 00:13:48;;;;;;;11.45;8.75;;;;;;;;;;5042385;28;20463;-68
2022/07/06 00:16:13;;;;;;;9.77;8.35;;;;;;;;;;5031005;28;20041;-69
2022/07/06 00:18:39;;;;;;;11.25;8.88;;;;;;;;;;5041676;28;20033;-70
2022/07/06 00:21:04;;;;;;;10.23;9.10;;;;;;;;;;5041541;28;20029;-69
2022/07/06 00:23:29;;;;;;;10.13;9.10;;;;;;;;;;5039783;28;20384;-72
2022/07/06 00:25:55;;;;;;;9.15;8.18;;;;;;;;;;5028955;28;20037;-70
2022/07/06 00:28:20;;;;;;;10.93;8.93;;;;;;;;;;5041645;28;20025;-69
2022/07/06 00:30:45;;;;;;;9.70;8.80;;;;;;;;;;5041494;28;20028;-69
2022/07/06 00:33:11;;;;;;;8.68;7.88;;;;;;;;;;5042206;28;20033;-69
2022/07/06 00:35:36;;;;;;;10.05;8.10;;;;;;;;;;5035980;28;20040;-69
2022/07/06 00:38:01;;;;;;;9.27;8.32;;;;;;;;;;5035114;28;20033;-72
2022/07/06 00:40:27;;;;;;;23.38;21.40;;;;;;;;;;5041270;28;20036;-70
2022/07/06 00:42:52;;;;;;;23.38;21.38;;;;;;;;;;5033014;28;20098;-69
2022/07/06 00:45:18;;;;;;;19.42;17.67;;;;;;;;;;5035714;28;20081;-71
2022/07/06 00:47:44;;;;;;;12.63;10.48;;;;;;;;;;5035696;28;20025;-69
2022/07/06 00:50:13;;;;;;;10.85;9.77;;;;;;;;;;5033917;28;20025;-69
2022/07/06 00:52:39;;;;;;;12.02;10.82;;;;;;;;;;5036834;28;20068;-70
2022/07/06 00:55:04;;;;;;;12.93;10.00;;;;;;;;;;5040704;28;21016;-69
2022/07/06 00:57:30;;;;;;;10.18;8.85;;;;;;;;;;5035748;28;20053;-69
2022/07/06 00:59:56;;;;;;;10.45;9.30;;;;;;;;;;5031349;28;20064;-70
2022/07/06 01:02:22;;;;;;;11.45;9.50;;;;;;;;;;5040156;28;20037;-71
2022/07/06 01:04:48;;;;;;;8.55;7.75;;;;;;;;;;5039529;28;20033;-69
2022/07/06 01:07:13;;;;;;;10.90;8.80;;;;;;;;;;5031890;28;20032;-70
2022/07/06 01:09:38;;;;;;;10.65;9.65;;;;;;;;;;5041137;28;20079;-70
2022/07/06 01:12:04;;;;;;;10.13;9.10;;;;;;;;;;5037008;28;20031;-69
2022/07/06 01:14:30;;;;;;;11.15;8.73;;;;;;;;;;5033556;28;20167;-68
2022/07/06 01:16:55;;;;;;;13.43;8.90;;;;;;;;;;5040738;28;20043;-70
2022/07/06 01:19:21;;;;;;;11.45;8.50;;;;;;;;;;5040841;28;20033;-69
2022/07/06 01:21:46;;;;;;;10.80;9.40;;;;;;;;;;5041164;28;20053;-69
2022/07/06 01:24:12;;;;;;;13.10;8.85;;;;;;;;;;5040972;28;20039;-68
2022/07/06 01:26:37;;;;;;;10.82;9.73;;;;;;;;;;5031060;28;20086;-71
2022/07/06 01:29:02;;;;;;;10.50;9.45;;;;;;;;;;5040427;28;20447;-69
2022/07/06 01:31:28;;;;;;;13.93;10.98;;;;;;;;;;5031469;28;20029;-68
2022/07/06 01:33:57;;;;;;;10.93;9.82;;;;;;;;;;5038423;28;20031;-70
2022/07/06 01:36:22;;;;;;;11.60;10.40;;;;;;;;;;5034333;28;20059;-68
2022/07/06 01:38:52;;;;;;;10.90;9.80;;;;;;;;;;5037160;28;20060;-71
2022/07/06 01:41:17;;;;;;;11.38;10.30;;;;;;;;;;5040419;28;20024;-69
2022/07/06 01:43:43;;;;;;;11.13;9.90;;;;;;;;;;5040328;28;20363;-68
2022/07/06 01:46:08;;;;;;;11.25;10.07;;;;;;;;;;5035341;28;20034;-69
2022/07/06 01:48:34;;;;;;;11.73;10.52;;;;;;;;;;5033706;28;20725;-71
2022/07/06 01:51:00;;;;;;;11.65;10.65;;;;;;;;;;5021470;28;20387;-70
2022/07/06 01:53:25;;;;;;;13.07;10.32;;;;;;;;;;5034333;28;20063;-70
2022/07/06 01:55:50;;;;;;;10.32;9.43;;;;;;;;;;5040737;28;20033;-70
2022/07/06 01:58:16;;;;;;;10.55;9.63;;;;;;;;;;5040012;28;20016;-71
2022/07/06 02:00:41;;;;;;;10.60;9.60;;;;;;;;;;5039806;28;20025;-69
2022/07/06 02:03:06;;;;;;;10.55;9.48;;;;;;;;;;5040128;28;20448;-71
2022/07/06 02:05:32;;;;;;;10.45;9.50;;;;;;;;;;5039620;28;20349;-71
2022/07/06 02:07:57;;;;;;;10.82;9.30;;;;;;;;;;5034781;28;20071;-70
2022/07/06 02:10:22;;;;;;;9.63;8.73;;;;;;;;;;5036636;28;20082;-69
2022/07/06 02:12:48;;;;;;;15.43;9.63;;;;;;;;;;5039070;28;20032;-69
2022/07/06 02:15:14;;;;;;;9.98;8.95;;;;;;;;;;5039821;28;20027;-68
2022/07/06 02:17:39;;;;;;;10.70;9.23;;;;;;;;;;5040042;28;20025;-69
2022/07/06 02:20:05;;;;;;;11.32;9.05;;;;;;;;;;5040052;28;20025;-69
2022/07/06 02:22:30;;;;;;;11.23;10.02;;;;;;;;;;5039117;28;20025;-69
2022/07/06 02:24:55;;;;;;;12.57;10.00;;;;;;;;;;5038694;28;20036;-68
2022/07/06 02:27:21;;;;;;;14.80;10.05;;;;;;;;;;5036999;28;20471;-69
2022/07/06 02:29:46;;;;;;;10.95;9.63;;;;;;;;;;5032047;28;20441;-70
2022/07/06 02:32:11;;;;;;;12.23;9.98;;;;;;;;;;5039114;28;20079;-69
2022/07/06 02:34:37;;;;;;;11.88;10.73;;;;;;;;;;5039377;28;20032;-69
2022/07/06 02:37:02;;;;;;;15.55;12.07;;;;;;;;;;5039736;28;20063;-70
2022/07/06 02:39:28;;;;;;;15.10;11.88;;;;;;;;;;5039298;28;20021;-67
2022/07/06 02:41:53;;;;;;;10.68;9.60;;;;;;;;;;5038327;28;20086;-69
2022/07/06 02:44:18;;;;;;;10.82;9.55;;;;;;;;;;5039245;28;20032;-68
2022/07/06 02:46:44;;;;;;;11.40;9.98;;;;;;;;;;5039080;28;20021;-68
2022/07/06 02:49:09;;;;;;;13.95;10.88;;;;;;;;;;5039190;28;20029;-69
2022/07/06 02:51:34;;;;;;;11.57;10.10;;;;;;;;;;5017440;28;20055;-69
2022/07/06 02:54:00;;;;;;;12.00;10.13;;;;;;;;;;5039430;28;20458;-71
2022/07/06 02:56:25;;;;;;;12.48;10.50;;;;;;;;;;5029193;28;20024;-70
2022/07/06 02:58:50;;;;;;;15.60;10.05;;;;;;;;;;5029599;28;20471;-70
2022/07/06 03:01:16;;;;;;;14.00;9.93;;;;;;;;;;5039752;28;20328;-69
2022/07/06 03:03:41;;;;;;;14.23;9.98;;;;;;;;;;5038611;28;20352;-70
2022/07/06 03:06:06;;;;;;;14.35;10.48;;;;;;;;;;5039128;28;20037;-69
2022/07/06 03:08:32;;;;;;;12.27;10.15;;;;;;;;;;5037842;28;20020;-69
2022/07/06 03:10:57;;;;;;;11.90;10.52;;;;;;;;;;5034140;28;20033;-70
2022/07/06 03:13:22;;;;;;;12.32;11.05;;;;;;;;;;5032430;28;20464;-69
2022/07/06 03:15:48;;;;;;;11.02;9.95;;;;;;;;;;5038040;28;21090;-69
2022/07/06 03:18:13;;;;;;;11.57;10.23;;;;;;;;;;5038974;28;20339;-69
2022/07/06 03:20:38;;;;;;;11.20;10.10;;;;;;;;;;5038878;28;20472;-69
2022/07/06 03:23:04;;;;;;;12.45;11.25;;;;;;;;;;5038985;28;20071;-71
2022/07/06 03:25:29;;;;;;;12.65;10.95;;;;;;;;;;5042390;28;20118;-71
2022/07/06 03:27:54;;;;;;;13.10;10.75;;;;;;;;;;5043054;28;20025;-70
2022/07/06 03:30:20;;;;;;;11.75;9.98;;;;;;;;;;5043535;28;20032;-68
2022/07/06 03:32:45;;;;;;;12.13;10.88;;;;;;;;;;5033430;28;20031;-71
2022/07/06 03:35:11;;;;;;;12.25;11.15;;;;;;;;;;5043018;28;20029;-70
2022/07/06 03:37:36;;;;;;;11.00;9.90;;;;;;;;;;5042615;28;20051;-70
2022/07/06 03:40:01;;;;;;;14.20;11.13;;;;;;;;;;5042534;28;20436;-71
2022/07/06 03:42:27;;;;;;;10.90;9.80;;;;;;;;;;5042398;28;20374;-68
2022/07/06 03:44:52;;;;;;;12.40;9.48;;;;;;;;;;5041475;28;20055;-71
2022/07/06 03:47:17;;;;;;;11.27;10.20;;;;;;;;;;5032270;28;20056;-68
2022/07/06 03:49:43;;;;;;;11.95;10.80;;;;;;;;;;5030567;28;20110;-71
2022/07/06 03:52:08;;;;;;;13.63;11.90;;;;;;;;;;5011376;28;20069;-70
2022/07/06 03:54:33;;;;;;;11.88;10.73;;;;;;;;;;5010211;28;20044;-70
2022/07/06 03:56:59;;;;;;;12.35;10.75;;;;;;;;;;5010392;28;20084;-70
2022/07/06 03:59:24;;;;;;;14.63;11.77;;;;;;;;;;5010002;28;20116;-69
2022/07/06 04:01:49;;;;;;;12.75;11.27;;;;;;;;;;5011396;28;20345;-70
2022/07/06 04:04:15;;;;;;;14.38;11.85;;;;;;;;;;5009328;28;20026;-69
2022/07/06 04:06:40;;;;;;;11.75;10.65;;;;;;;;;;5009662;28;20429;-69
2022/07/06 04:09:05;;;;;;;14.05;12.07;;;;;;;;;;5009279;28;20287;-68
2022/07/06 04:11:31;;;;;;;13.13;11.82;;;;;;;;;;5009778;28;20100;-69
2022/07/06 04:13:56;;;;;;;16.52;13.77;;;;;;;;;;5008015;28;20018;-70
2022/07/06 04:16:21;;;;;;;15.27;13.18;;;;;;;;;;5008835;28;20029;-69
2022/07/06 04:18:47;;;;;;;16.95;13.45;;;;;;;;;;5020899;28;20108;-70
2022/07/06 04:21:12;;;;;;;14.63;12.30;;;;;;;;;;5021719;28;20017;-68
2022/07/06 04:23:37;;;;;;;13.98;12.27;;;;;;;;;;5020839;28;20056;-68
2022/07/06 04:26:03;;;;;;;12.93;11.88;;;;;;;;;;5009509;28;20039;-71
2022/07/06 04:28:28;;;;;;;13.18;11.77;;;;;;;;;;5013586;28;20030;-69
2022/07/06 04:30:54;;;;;;;14.82;13.50;;;;;;;;;;5022637;28;20052;-71
2022/07/06 04:33:19;;;;;;;15.70;14.07;;;;;;;;;;5013343;28;20112;-69
2022/07/06 04:35:44;;;;;;;15.18;13.48;;;;;;;;;;5018493;28;20033;-71
2022/07/06 04:38:10;;;;;;;18.85;13.57;;;;;;;;;;5009931;28;20044;-71
2022/07/06 04:40:35;;;;;;;13.93;12.73;;;;;;;;;;5022387;28;20083;-71
2022/07/06 04:43:00;;;;;;;14.90;13.40;;;;;;;;;;5022055;28;20049;-69
2022/07/06 04:45:26;;;;;;;15.48;13.52;;;;;;;;;;5021920;28;20041;-71
2022/07/06 04:47:51;;;;;;;17.02;13.75;;;;;;;;;;5019278;28;20156;-70
2022/07/06 04:50:17;;;;;;;15.52;13.93;;;;;;;;;;5021826;28;20025;-69
2022/07/06 04:52:42;;;;;;;15.82;14.27;;;;;;;;;;5034101;28;20041;-70
2022/07/06 04:55:08;;;;;;;19.00;15.70;;;;;;;;;;5040796;28;20448;-69
2022/07/06 04:57:34;;;;;;;18.40;15.82;;;;;;;;;;5041940;28;20715;-69
2022/07/06 04:59:59;;;;;;;16.80;15.23;;;;;;;;;;5042637;28;20598;-69
2022/07/06 05:02:24;;;;;;;16.35;14.73;;;;;;;;;;5041920;28;20025;-69
2022/07/06 05:04:50;;;;;;;17.67;15.75;;;;;;;;;;5039245;28;20068;-69
2022/07/06 05:07:15;;;;;;;17.05;14.98;;;;;;;;;;5039128;28;20021;-69
2022/07/06 05:09:41;;;;;;;19.50;14.32;;;;;;;;;;5039611;28;20067;-69
2022/07/06 05:12:06;;;;;;;15.50;14.10;;;;;;;;;;5041418;28;20487;-69
2022/07/06 05:14:32;;;;;;;16.58;14.98;;;;;;;;;;5041035;28;20440;-69
2022/07/06 05:16:57;;;;;;;18.13;15.98;;;;;;;;;;5039541;28;20024;-70
2022/07/06 05:19:22;;;;;;;15.98;13.82;;;;;;;;;;5040446;28;20547;-69
2022/07/06 05:21:48;;;;;;;16.38;14.82;;;;;;;;;;5041646;28;20332;-69
2022/07/06 05:24:13;;;;;;;17.02;15.27;;;;;;;;;;5041053;28;20124;-68
2022/07/06 05:26:38;;;;;;;16.75;15.13;;;;;;;;;;5041039;28;20103;-71
2022/07/06 05:29:04;;;;;;;15.02;13.63;;;;;;;;;;5040706;28;20037;-69
2022/07/06 05:31:29;;;;;;;18.35;15.70;;;;;;;;;;5040206;28;20028;-69
2022/07/06 05:33:54;;;;;;;18.80;16.50;;;;;;;;;;5040652;28;20036;-69
2022/07/06 05:36:20;;;;;;;18.33;16.35;;;;;;;;;;5041300;28;20020;-71
2022/07/06 05:38:45;;;;;;;18.10;15.40;;;;;;;;;;5040317;28;20029;-69
2022/07/06 05:41:10;;;;;;;19.52;17.73;;;;;;;;;;5039277;28;20094;-69
2022/07/06 05:43:36;;;;;;;19.77;17.77;;;;;;;;;;5032020;28;20061;-69
2022/07/06 05:46:02;;;;;;;21.75;19.30;;;;;;;;;;5029247;28;20436;-69
2022/07/06 05:51:11;;;;;;;19.17;17.20;;;;;;;;;;5039988;28;20031;-69
2022/07/06 05:53:36;;;;;;;20.88;18.55;;;;;;;;;;5040508;28;20028;-69
2022/07/06 05:56:02;;;;;;;20.40;18.40;;;;;;;;;;5034799;28;20057;-69
2022/07/06 05:58:27;;;;;;;20.35;18.10;;;;;;;;;;5034229;28;20028;-70
2022/07/06 06:00:52;;;;;;;20.70;18.73;;;;;;;;;;5040352;28;20025;-69
2022/07/06 06:03:18;;;;;;;19.92;17.83;;;;;;;;;;5040129;28;20029;-70
2022/07/06 06:05:43;;;;;;;19.00;17.23;;;;;;;;;;5039752;28;20033;-71
2022/07/06 06:08:09;;;;;;;19.80;17.35;;;;;;;;;;5039909;28;20031;-70
2022/07/06 06:10:34;;;;;;;18.63;16.83;;;;;;;;;;5039873;28;20052;-69
2022/07/06 06:12:59;;;;;;;19.48;17.65;;;;;;;;;;5039852;28;20108;-71
2022/07/06 06:15:25;;;;;;;17.83;15.98;;;;;;;;;;5039772;28;20043;-69
2022/07/06 06:17:50;;;;;;;18.23;16.58;;;;;;;;;;5039618;28;20033;-69
2022/07/06 06:20:15;;;;;;;18.05;16.35;;;;;;;;;;5038750;28;20021;-70
2022/07/06 06:22:51;;;;;;;17.88;16.17;;;;;;;;;;5039859;28;20080;-70
2022/07/06 06:25:18;;;;;;;20.23;18.50;;;;;;;;;;5039803;28;20123;-70
2022/07/06 06:27:43;;;;;;;21.60;19.50;;;;;;;;;;5039564;28;20040;-70
2022/07/06 06:30:09;;;;;;;19.65;17.67;;;;;;;;;;5039402;28;20047;-69
2022/07/06 06:32:34;;;;;;;16.55;14.93;;;;;;;;;;5031402;28;20063;-70
2022/07/06 06:35:00;;;;;;;18.17;16.48;;;;;;;;;;5037190;28;20028;-69
2022/07/06 06:37:25;;;;;;;17.67;16.08;;;;;;;;;;5039959;28;20428;-69
2022/07/06 06:39:50;;;;;;;17.58;16.08;;;;;;;;;;5039741;28;20127;-71
2022/07/06 06:42:16;;;;;;;21.10;15.93;;;;;;;;;;5038719;28;20138;-69
2022/07/06 06:44:41;;;;;;;18.35;16.70;;;;;;;;;;5039826;28;20033;-70
2022/07/06 06:47:06;;;;;;;22.42;19.92;;;;;;;;;;5039443;28;20025;-70
2022/07/06 06:49:32;;;;;;;28.92;26.23;;;;;;;;;;5038973;28;20028;-70
2022/07/06 06:51:57;;;;;;;30.40;27.35;;;;;;;;;;5039364;28;20048;-70
2022/07/06 06:54:22;;;;;;;26.80;24.00;;;;;;;;;;5038476;28;20013;-69
2022/07/06 06:56:48;;;;;;;22.80;20.40;;;;;;;;;;5031744;28;20029;-70
2022/07/06 06:59:13;;;;;;;26.88;22.35;;;;;;;;;;5026755;28;20040;-70
2022/07/06 07:01:38;;;;;;;22.45;20.20;;;;;;;;;;5027599;28;20718;-69
2022/07/06 07:04:04;;;;;;;22.30;20.13;;;;;;;;;;5025798;28;20033;-70
2022/07/06 07:06:29;;;;;;;25.13;20.60;;;;;;;;;;5030662;28;20029;-70
2022/07/06 07:08:55;;;;;;;20.55;18.48;;;;;;;;;;5039578;28;20451;-68
2022/07/06 07:11:21;;;;;;;19.33;17.63;;;;;;;;;;5039862;28;20435;-68
2022/07/06 07:13:46;;;;;;;23.38;20.67;;;;;;;;;;5039649;28;20593;-71
2022/07/06 07:16:11;;;;;;;22.58;20.48;;;;;;;;;;5039488;28;20031;-71
2022/07/06 07:18:37;;;;;;;22.38;20.25;;;;;;;;;;5018329;28;20057;-71
2022/07/06 07:21:02;;;;;;;21.55;19.55;;;;;;;;;;5026962;28;20025;-71
2022/07/06 07:23:28;;;;;;;22.55;20.25;;;;;;;;;;5030908;28;20117;-70
2022/07/06 07:25:53;;;;;;;20.65;18.77;;;;;;;;;;5025947;28;20045;-70
2022/07/06 07:28:18;;;;;;;20.85;19.05;;;;;;;;;;5025092;28;20032;-72
2022/07/06 07:30:44;;;;;;;19.65;17.75;;;;;;;;;;5024864;28;20061;-70
2022/07/06 07:33:09;;;;;;;18.15;15.40;;;;;;;;;;5025671;28;20083;-72
2022/07/06 07:35:35;;;;;;;18.10;16.23;;;;;;;;;;5025075;28;20448;-72
2022/07/06 07:38:00;;;;;;;18.60;16.90;;;;;;;;;;5023580;28;20602;-72
2022/07/06 07:40:26;;;;;;;17.23;15.70;;;;;;;;;;5026737;28;20080;-71
2022/07/06 07:42:52;;;;;;;17.42;15.82;;;;;;;;;;5025983;28;20486;-71
2022/07/06 07:45:17;;;;;;;19.05;17.08;;;;;;;;;;5026776;28;20115;-70
2022/07/06 07:47:43;;;;;;;17.45;15.75;;;;;;;;;;5025484;28;20104;-72
2022/07/06 07:50:09;;;;;;;17.55;15.80;;;;;;;;;;5025518;28;20029;-70
2022/07/06 07:52:34;;;;;;;14.23;13.02;;;;;;;;;;5026869;28;20080;-71
2022/07/06 07:55:00;;;;;;;13.40;12.18;;;;;;;;;;5024849;28;20041;-71
2022/07/06 07:57:25;;;;;;;13.82;12.65;;;;;;;;;;5026467;28;20115;-71
2022/07/06 07:59:51;;;;;;;13.70;12.40;;;;;;;;;;5025014;28;20029;-71
2022/07/06 08:02:16;;;;;;;13.68;12.57;;;;;;;;;;5026053;28;20150;-71
2022/07/06 08:04:41;;;;;;;12.68;11.48;;;;;;;;;;5024816;28;20032;-71
2022/07/06 08:07:07;;;;;;;11.25;10.35;;;;;;;;;;5024340;28;20032;-71
2022/07/06 08:09:32;;;;;;;11.45;10.35;;;;;;;;;;5026331;28;20024;-72
2022/07/06 08:11:58;;;;;;;10.98;10.18;;;;;;;;;;5028312;28;21200;-72
2022/07/06 08:14:24;;;;;;;11.80;10.52;;;;;;;;;;5031969;28;20428;-71
2022/07/06 08:16:49;;;;;;;9.82;8.93;;;;;;;;;;5041073;28;20352;-72
2022/07/06 08:19:15;;;;;;;9.57;8.80;;;;;;;;;;5041174;28;20086;-71
2022/07/06 08:21:41;;;;;;;10.20;9.25;;;;;;;;;;5041930;28;20024;-70
2022/07/06 08:24:06;;;;;;;10.63;9.65;;;;;;;;;;5040535;28;20021;-71
2022/07/06 08:26:31;;;;;;;9.75;8.90;;;;;;;;;;5040921;28;20106;-71
2022/07/06 08:28:57;;;;;;;9.35;8.65;;;;;;;;;;5040601;28;20070;-71
2022/07/06 08:31:22;;;;;;;10.45;9.50;;;;;;;;;;5041606;28;20059;-71
2022/07/06 08:33:48;;;;;;;10.40;9.60;;;;;;;;;;5040984;28;20562;-70
2022/07/06 08:36:14;;;;;;;10.20;9.40;;;;;;;;;;5041275;28;20036;-71
2022/07/06 08:38:39;;;;;;;10.05;9.25;;;;;;;;;;5040731;28;20027;-70
2022/07/06 08:41:05;;;;;;;9.50;8.80;;;;;;;;;;5035586;28;20431;-70
2022/07/06 08:43:32;;;;;;;8.73;8.02;;;;;;;;;;5028102;28;20052;-69
2022/07/06 08:45:58;;;;;;;7.18;6.57;;;;;;;;;;5028753;28;20064;-69
2022/07/06 08:48:24;;;;;;;6.93;6.20;;;;;;;;;;5029038;28;20116;-70
2022/07/06 08:50:49;;;;;;;10.20;9.40;;;;;;;;;;5029009;28;20134;-70
2022/07/06 08:53:16;;;;;;;7.78;7.03;;;;;;;;;;5030267;28;20048;-69
2022/07/06 08:55:42;;;;;;;7.22;6.63;;;;;;;;;;5029153;28;20029;-71
2022/07/06 08:58:07;;;;;;;6.78;6.20;;;;;;;;;;5029374;28;20403;-69
2022/07/06 09:00:33;;;;;;;7.97;7.28;;;;;;;;;;5028586;28;20037;-68
2022/07/06 09:02:59;;;;;;;9.43;8.32;;;;;;;;;;5030284;28;20025;-69
2022/07/06 09:05:25;;;;;;;5.55;5.15;;;;;;;;;;5028315;28;20083;-69
2022/07/06 09:07:51;;;;;;;6.95;5.38;;;;;;;;;;5028534;28;20051;-68
2022/07/06 09:10:21;;;;;;;5.75;4.85;;;;;;;;;;5029369;28;20033;-69
2022/07/06 09:12:47;;;;;;;4.93;4.53;;;;;;;;;;5028624;28;20402;-69
2022/07/06 09:15:12;;;;;;;4.95;4.45;;;;;;;;;;5028750;28;20033;-71
2022/07/06 09:17:41;;;;;;;4.50;4.10;;;;;;;;;;5029063;28;20356;-69
2022/07/06 09:20:10;;;;;;;4.18;3.80;;;;;;;;;;5029387;28;20426;-69
2022/07/06 09:22:35;;;;;;;;;;;;;;;;;;5027648;28;20104;-70
2022/07/06 09:25:12;;;;;;;4.50;3.70;;;;;;;;;;5033282;28;20012;-68
2022/07/06 09:27:49;;;;;;;4.60;4.30;;;;;;;;;;5029277;28;20025;-69
2022/07/06 09:30:15;;;;;;;5.20;3.40;;;;;;;;;;5029530;28;20025;-69
2022/07/06 09:32:41;;;;;;;3.50;3.13;;;;;;;;;;5028355;28;20033;-69
2022/07/06 09:35:07;;;;;;;3.15;2.95;;;;;;;;;;5029564;28;20031;-69
2022/07/06 09:37:32;;;;;;;3.63;3.33;;;;;;;;;;5026600;28;20025;-68
2022/07/06 09:39:57;;;;;;;3.35;3.05;;;;;;;;;;5034287;28;20050;-67
2022/07/06 09:42:26;;;;;;;3.42;3.13;;;;;;;;;;5029129;28;20131;-75
2022/07/06 09:44:52;;;;;;;3.67;3.40;;;;;;;;;;5027233;28;20086;-72
2022/07/06 09:47:17;;;;;;;5.13;2.75;;;;;;;;;;5027583;28;20464;-76
2022/07/06 09:49:43;;;;;;;5.15;3.05;;;;;;;;;;5026239;28;20119;-73
2022/07/06 09:52:09;;;;;;;2.80;2.70;;;;;;;;;;5026160;28;20056;-72
2022/07/06 09:54:35;;;;;;;2.97;2.70;;;;;;;;;;5027616;28;20063;-73
2022/07/06 09:57:00;;;;;;;3.00;2.70;;;;;;;;;;5027576;28;20025;-72
2022/07/06 09:59:27;;;;;;;2.63;2.42;;;;;;;;;;5031308;28;20452;-71
2022/07/06 10:01:54;;;;;;;2.95;2.75;;;;;;;;;;5028843;28;20033;-71
2022/07/06 10:04:20;;;;;;;2.40;2.30;;;;;;;;;;5027541;28;20034;-72
2022/07/06 10:06:46;;;;;;;2.47;2.28;;;;;;;;;;5039184;28;20033;-70
2022/07/06 10:09:12;;;;;;;2.95;2.40;;;;;;;;;;5026537;28;20112;-70
2022/07/06 10:11:39;;;;;;;4.43;2.25;;;;;;;;;;5027175;28;20440;-71
2022/07/06 10:14:05;;;;;;;2.95;2.20;;;;;;;;;;5025620;28;20040;-73
2022/07/06 10:16:31;;;;;;;2.65;2.45;;;;;;;;;;5027362;28;20131;-71
2022/07/06 10:18:57;;;;;;;3.10;2.88;;;;;;;;;;5026995;28;20435;-70
2022/07/06 10:21:23;;;;;;;2.80;2.60;;;;;;;;;;5026534;28;20039;-72
2022/07/06 10:23:49;;;;;;;2.58;2.38;;;;;;;;;;5026247;28;20024;-69
2022/07/06 10:26:15;;;;;;;2.47;2.33;;;;;;;;;;5027018;28;20040;-71
2022/07/06 10:28:41;;;;;;;2.20;2.10;;;;;;;;;;5027235;28;20818;-70
2022/07/06 10:31:07;;;;;;;2.95;2.20;;;;;;;;;;5028038;28;20082;-68
2022/07/06 10:33:33;;;;;;;2.10;2.00;;;;;;;;;;5025826;28;20028;-70
2022/07/06 10:35:58;;;;;;;2.85;2.38;;;;;;;;;;5024988;28;20456;-70
2022/07/06 10:38:34;;;;;;;2.13;2.00;;;;;;;;;;5027111;28;20021;-69
2022/07/06 10:41:03;;;;;;;3.10;2.10;;;;;;;;;;5026829;28;20028;-70
2022/07/06 10:43:32;;;;;;;2.25;2.15;;;;;;;;;;5027030;28;20045;-70
2022/07/06 10:45:58;;;;;;;2.53;2.33;;;;;;;;;;5024697;28;20044;-73
2022/07/06 10:48:23;;;;;;;2.33;2.10;;;;;;;;;;5025945;28;20040;-70
2022/07/06 10:50:49;;;;;;;2.75;2.55;;;;;;;;;;5025227;28;20458;-69
2022/07/06 10:53:15;;;;;;;2.10;2.00;;;;;;;;;;5025050;28;20457;-69
2022/07/06 10:55:43;;;;;;;2.40;2.20;;;;;;;;;;5024964;28;20036;-70
2022/07/06 10:58:08;;;;;;;2.35;2.20;;;;;;;;;;5025749;28;20082;-71
2022/07/06 11:00:52;;;;;;;2.13;1.90;;;;;;;;;;5028167;28;20024;-69
2022/07/06 11:03:44;;;;;;;4.57;2.33;;;;;;;;;;5025911;28;20114;-70
2022/07/06 11:06:09;;;;;;;2.10;1.80;;;;;;;;;;5005776;28;20049;-70
2022/07/06 11:09:01;;;;;;;2.33;2.10;;;;;;;;;;5025453;28;20044;-69
2022/07/06 11:11:32;;;;;;;2.85;1.88;;;;;;;;;;5032239;28;20460;-72
2022/07/06 11:14:03;;;;;;;1.70;1.60;;;;;;;;;;5037604;28;20445;-70
2022/07/06 11:16:36;;;;;;;1.85;1.70;;;;;;;;;;5037828;28;20053;-70
2022/07/06 11:19:01;;;;;;;1.90;1.80;;;;;;;;;;5037767;28;20542;-71
2022/07/06 11:21:47;;;;;;;1.90;1.80;;;;;;;;;;5028429;28;20036;-70
2022/07/06 11:24:16;;;;;;;1.60;1.50;;;;;;;;;;5038141;28;20049;-70
2022/07/06 11:26:43;;;;;;;2.55;2.13;;;;;;;;;;5027528;28;20128;-71
2022/07/06 11:29:09;;;;;;;2.20;1.60;;;;;;;;;;5026060;28;20068;-72
2022/07/06 11:31:36;;;;;;;1.80;1.70;;;;;;;;;;5025890;28;20116;-71
2022/07/06 11:34:02;;;;;;;1.80;1.70;;;;;;;;;;5026810;28;20021;-71
2022/07/06 11:36:27;;;;;;;2.22;1.73;;;;;;;;;;5025354;28;20059;-71
2022/07/06 11:38:53;;;;;;;3.80;1.88;;;;;;;;;;5033240;28;20128;-71
2022/07/06 11:41:18;;;;;;;3.05;2.00;;;;;;;;;;5038746;28;20110;-70
2022/07/06 11:43:45;;;;;;;1.73;1.63;;;;;;;;;;5039653;28;20317;-71
2022/07/06 11:46:23;;;;;;;1.70;1.60;;;;;;;;;;5041878;28;20028;-71
2022/07/06 11:48:49;;;;;;;1.65;1.55;;;;;;;;;;5042344;28;20341;-71
2022/07/06 11:51:15;;;;;;;3.17;1.83;;;;;;;;;;5043506;28;20024;-70
2022/07/06 11:53:47;;;;;;;1.83;1.73;;;;;;;;;;5042493;28;20447;-70
2022/07/06 11:56:14;;;;;;;1.98;1.88;;;;;;;;;;5042625;28;20032;-71
2022/07/06 11:58:42;;;;;;;1.65;1.55;;;;;;;;;;5043087;28;20555;-72
2022/07/06 12:01:09;;;;;;;3.47;1.90;;;;;;;;;;5042594;28;20033;-71
2022/07/06 12:03:34;;;;;;;1.98;1.75;;;;;;;;;;5043635;28;20024;-72
2022/07/06 12:06:03;;;;;;;1.75;1.65;;;;;;;;;;5044031;28;20456;-72
2022/07/06 12:08:29;;;;;;;2.38;2.17;;;;;;;;;;5043219;28;20653;-71
2022/07/06 12:10:55;;;;;;;2.95;1.83;;;;;;;;;;5029704;28;20029;-70
2022/07/06 12:13:20;;;;;;;1.60;1.50;;;;;;;;;;5043198;28;20044;-71
2022/07/06 12:15:46;;;;;;;1.88;1.73;;;;;;;;;;5043636;28;20017;-71
2022/07/06 12:18:11;;;;;;;5.95;1.73;;;;;;;;;;5042893;28;20028;-73
2022/07/06 12:20:36;;;;;;;4.00;1.88;;;;;;;;;;5042473;28;20025;-74
2022/07/06 12:23:05;;;;;;;1.40;1.40;;;;;;;;;;5043444;28;20021;-71
2022/07/06 12:25:34;;;;;;;1.85;1.63;;;;;;;;;;5042603;28;20028;-71
2022/07/06 12:28:00;;;;;;;3.25;1.83;;;;;;;;;;5043043;28;20056;-70
2022/07/06 12:30:25;;;;;;;2.28;1.70;;;;;;;;;;5042817;28;20072;-70
2022/07/06 12:33:09;;;;;;;1.70;1.60;;;;;;;;;;5043134;28;20057;-70
2022/07/06 12:35:35;;;;;;;2.33;1.98;;;;;;;;;;5043480;28;20036;-73
2022/07/06 12:38:00;;;;;;;1.80;1.70;;;;;;;;;;5042733;28;20044;-72
2022/07/06 12:40:30;;;;;;;6.30;5.80;;;;;;;;;;5042281;28;20035;-71
2022/07/06 12:42:55;;;;;;;1.90;1.80;;;;;;;;;;5042814;28;20332;-71
2022/07/06 12:45:26;;;;;;;1.70;1.60;;;;;;;;;;5042778;28;20035;-71
2022/07/06 12:48:02;;;;;;;1.75;1.65;;;;;;;;;;5042539;28;20032;-71
2022/07/06 12:50:46;;;;;;;1.80;1.70;;;;;;;;;;5043161;28;20033;-71
2022/07/06 12:53:24;;;;;;;2.33;1.80;;;;;;;;;;5043205;28;20087;-72
2022/07/06 12:56:07;;;;;;;2.67;1.70;;;;;;;;;;5042550;28;20021;-73
2022/07/06 12:58:32;;;;;;;2.58;1.90;;;;;;;;;;5042743;28;20037;-71
2022/07/06 13:00:58;;;;;;;2.13;1.45;;;;;;;;;;5043278;28;20341;-73
2022/07/06 13:03:23;;;;;;;1.73;1.40;;;;;;;;;;5042555;28;20466;-74
2022/07/06 13:05:49;;;;;;;1.30;1.20;;;;;;;;;;5041998;28;20432;-72
2022/07/06 13:08:15;;;;;;;2.58;1.60;;;;;;;;;;5043634;28;20164;-72
2022/07/06 13:10:42;;;;;;;1.67;1.50;;;;;;;;;;5043664;28;20349;-72
2022/07/06 13:13:08;;;;;;;1.70;1.60;;;;;;;;;;5043753;28;20033;-71
2022/07/06 13:15:33;;;;;;;2.10;2.00;;;;;;;;;;5043664;28;20114;-73
2022/07/06 13:17:59;;;;;;;1.92;1.83;;;;;;;;;;5042958;28;20029;-72
2022/07/06 13:20:24;;;;;;;3.15;2.45;;;;;;;;;;5042613;28;20025;-72
2022/07/06 13:22:50;;;;;;;1.95;1.85;;;;;;;;;;5042431;28;20024;-72
2022/07/06 13:25:15;;;;;;;1.50;1.40;;;;;;;;;;5037755;28;20115;-72
2022/07/06 13:27:41;;;;;;;1.48;1.38;;;;;;;;;;5026913;28;20025;-77
2022/07/06 13:30:07;;;;;;;2.35;1.40;;;;;;;;;;5006950;28;20052;-72
2022/07/06 13:32:33;;;;;;;1.63;1.52;;;;;;;;;;5040885;28;20051;-76
2022/07/06 13:34:58;;;;;;;1.48;1.38;;;;;;;;;;5037617;28;20530;-74
2022/07/06 13:37:23;;;;;;;1.50;1.40;;;;;;;;;;5028705;28;20036;-74
2022/07/06 13:39:49;;;;;;;1.98;1.20;;;;;;;;;;5041721;28;20025;-75
2022/07/06 13:42:14;;;;;;;2.65;1.17;;;;;;;;;;5029414;28;20040;-75
2022/07/06 13:44:39;;;;;;;1.40;1.30;;;;;;;;;;5033553;28;20444;-75
2022/07/06 13:47:05;;;;;;;2.10;1.60;;;;;;;;;;5038164;28;20031;-72
2022/07/06 13:49:30;;;;;;;2.22;1.42;;;;;;;;;;5035029;28;20497;-72
2022/07/06 13:52:02;;;;;;;1.40;1.30;;;;;;;;;;5041208;28;20060;-72
2022/07/06 13:54:27;;;;;;;1.80;1.70;;;;;;;;;;5034957;28;20025;-72
2022/07/06 13:56:53;;;;;;;1.95;1.50;;;;;;;;;;5016756;28;20368;-72
2022/07/06 13:59:18;;;;;;;1.60;1.50;;;;;;;;;;5029699;28;20033;-73
2022/07/06 14:01:43;;;;;;;1.48;1.38;;;;;;;;;;5028712;28;20114;-73
2022/07/06 14:04:09;;;;;;;1.48;1.38;;;;;;;;;;5027941;28;20048;-72
2022/07/06 14:06:34;;;;;;;2.30;1.35;;;;;;;;;;5022244;28;20040;-72
2022/07/06 14:09:00;;;;;;;3.20;1.23;;;;;;;;;;5028874;28;20028;-72
2022/07/06 14:11:25;;;;;;;1.40;1.27;;;;;;;;;;5027279;28;20029;-72
2022/07/06 14:13:50;;;;;;;3.17;1.50;;;;;;;;;;5029222;28;20029;-72
2022/07/06 14:16:16;;;;;;;2.83;1.48;;;;;;;;;;5027529;28;20535;-72
2022/07/06 14:18:43;;;;;;;1.70;1.60;;;;;;;;;;5029335;28;20384;-71
2022/07/06 14:21:08;;;;;;;1.80;1.67;;;;;;;;;;5040050;28;20021;-71
2022/07/06 14:23:33;;;;;;;2.03;1.92;;;;;;;;;;5041244;28;20065;-73
2022/07/06 14:25:59;;;;;;;1.75;1.65;;;;;;;;;;5041375;28;20029;-72
2022/07/06 14:28:24;;;;;;;2.95;2.13;;;;;;;;;;5029100;28;20033;-71